sensor_id;sensor_type;location;lat;lon;timestamp;P1;durP1;ratioP1;P2;durP2;ratioP2
41311;SDS011;27061;41.648;24.568;2024-01-15T00:01:51;1.65;;;1.55;;
41311;SDS011;27061;41.648;24.568;2024-01-15T00:04:18;6.53;;;2.67;;
41311;SDS011;27061;41.648;24.568;2024-01-15T00:06:45;4.82;;;1.92;;
41311;SDS011;27061;41.648;24.568;2024-01-15T00:09:13;1.45;;;1.35;;
41311;SDS011;27061;41.648;24.568;2024-01-15T00:11:40;2.17;;;1.40;;
41311;SDS011;27061;41.648;24.568;2024-01-15T00:14:08;1.75;;;1.17;;
41311;SDS011;27061;41.648;24.568;2024-01-15T00:16:37;1.63;;;1.50;;
41311;SDS011;27061;41.648;24.568;2024-01-15T00:19:05;2.88;;;1.40;;
41311;SDS011;27061;41.648;24.568;2024-01-15T00:21:33;2.42;;;1.30;;
41311;SDS011;27061;41.648;24.568;2024-01-15T00:24:00;2.33;;;1.65;;
41311;SDS011;27061;41.648;24.568;2024-01-15T00:26:28;2.80;;;1.50;;
41311;SDS011;27061;41.648;24.568;2024-01-15T00:28:55;1.13;;;1.00;;
41311;SDS011;27061;41.648;24.568;2024-01-15T00:31:23;2.25;;;1.70;;
41311;SDS011;27061;41.648;24.568;2024-01-15T00:33:50;2.45;;;1.50;;
41311;SDS011;27061;41.648;24.568;2024-01-15T00:36:19;1.65;;;1.38;;
41311;SDS011;27061;41.648;24.568;2024-01-15T00:38:47;1.13;;;1.02;;
41311;SDS011;27061;41.648;24.568;2024-01-15T00:41:16;2.60;;;1.40;;
41311;SDS011;27061;41.648;24.568;2024-01-15T00:43:46;2.10;;;1.58;;
41311;SDS011;27061;41.648;24.568;2024-01-15T00:46:18;3.53;;;1.67;;
41311;SDS011;27061;41.648;24.568;2024-01-15T00:48:45;1.45;;;1.35;;
41311;SDS011;27061;41.648;24.568;2024-01-15T00:51:14;3.22;;;1.48;;
41311;SDS011;27061;41.648;24.568;2024-01-15T00:53:41;2.22;;;1.55;;
41311;SDS011;27061;41.648;24.568;2024-01-15T00:56:09;4.78;;;1.75;;
41311;SDS011;27061;41.648;24.568;2024-01-15T00:58:36;2.65;;;1.27;;
41311;SDS011;27061;41.648;24.568;2024-01-15T01:01:03;1.73;;;1.30;;
41311;SDS011;27061;41.648;24.568;2024-01-15T01:03:31;4.65;;;1.70;;
41311;SDS011;27061;41.648;24.568;2024-01-15T01:05:58;15.57;;;3.30;;
41311;SDS011;27061;41.648;24.568;2024-01-15T01:08:26;8.32;;;1.67;;
41311;SDS011;27061;41.648;24.568;2024-01-15T01:10:58;2.92;;;1.20;;
41311;SDS011;27061;41.648;24.568;2024-01-15T01:13:25;5.25;;;1.20;;
41311;SDS011;27061;41.648;24.568;2024-01-15T01:15:53;4.65;;;1.65;;
41311;SDS011;27061;41.648;24.568;2024-01-15T01:18:20;2.80;;;1.50;;
41311;SDS011;27061;41.648;24.568;2024-01-15T01:20:49;3.63;;;1.80;;
41311;SDS011;27061;41.648;24.568;2024-01-15T01:23:18;7.53;;;4.45;;
41311;SDS011;27061;41.648;24.568;2024-01-15T01:25:47;1.80;;;1.40;;
41311;SDS011;27061;41.648;24.568;2024-01-15T01:28:17;2.35;;;1.70;;
41311;SDS011;27061;41.648;24.568;2024-01-15T01:30:46;2.50;;;1.65;;
41311;SDS011;27061;41.648;24.568;2024-01-15T01:33:13;1.63;;;1.45;;
41311;SDS011;27061;41.648;24.568;2024-01-15T01:35:41;2.83;;;2.08;;
41311;SDS011;27061;41.648;24.568;2024-01-15T01:38:08;1.38;;;1.27;;
41311;SDS011;27061;41.648;24.568;2024-01-15T01:40:35;2.67;;;1.55;;
41311;SDS011;27061;41.648;24.568;2024-01-15T01:43:04;1.40;;;1.30;;
41311;SDS011;27061;41.648;24.568;2024-01-15T01:45:35;1.95;;;1.35;;
41311;SDS011;27061;41.648;24.568;2024-01-15T01:48:04;1.27;;;1.10;;
41311;SDS011;27061;41.648;24.568;2024-01-15T01:50:32;2.45;;;1.50;;
41311;SDS011;27061;41.648;24.568;2024-01-15T01:53:00;1.30;;;1.20;;
41311;SDS011;27061;41.648;24.568;2024-01-15T01:55:30;2.60;;;1.30;;
41311;SDS011;27061;41.648;24.568;2024-01-15T01:58:00;1.35;;;1.27;;
41311;SDS011;27061;41.648;24.568;2024-01-15T02:00:30;3.75;;;1.48;;
41311;SDS011;27061;41.648;24.568;2024-01-15T02:02:59;2.60;;;1.58;;
41311;SDS011;27061;41.648;24.568;2024-01-15T02:05:27;2.05;;;1.60;;
41311;SDS011;27061;41.648;24.568;2024-01-15T02:07:55;1.58;;;1.10;;
41311;SDS011;27061;41.648;24.568;2024-01-15T02:10:25;8.98;;;1.30;;
41311;SDS011;27061;41.648;24.568;2024-01-15T02:12:53;1.35;;;1.25;;
41311;SDS011;27061;41.648;24.568;2024-01-15T02:15:20;1.80;;;1.25;;
41311;SDS011;27061;41.648;24.568;2024-01-15T02:20:28;1.45;;;1.35;;
41311;SDS011;27061;41.648;24.568;2024-01-15T02:23:11;1.50;;;1.40;;
41311;SDS011;27061;41.648;24.568;2024-01-15T02:25:57;3.88;;;1.30;;
41311;SDS011;27061;41.648;24.568;2024-01-15T02:28:25;1.77;;;1.42;;
41311;SDS011;27061;41.648;24.568;2024-01-15T02:30:53;1.35;;;1.25;;
41311;SDS011;27061;41.648;24.568;2024-01-15T02:33:20;1.50;;;1.23;;
41311;SDS011;27061;41.648;24.568;2024-01-15T02:35:49;4.63;;;2.00;;
41311;SDS011;27061;41.648;24.568;2024-01-15T02:38:19;1.85;;;1.23;;
41311;SDS011;27061;41.648;24.568;2024-01-15T02:40:49;1.38;;;1.27;;
41311;SDS011;27061;41.648;24.568;2024-01-15T02:43:17;2.22;;;1.40;;
41311;SDS011;27061;41.648;24.568;2024-01-15T02:45:46;1.40;;;1.20;;
41311;SDS011;27061;41.648;24.568;2024-01-15T02:48:14;2.45;;;1.67;;
41311;SDS011;27061;41.648;24.568;2024-01-15T02:50:42;2.13;;;1.70;;
41311;SDS011;27061;41.648;24.568;2024-01-15T02:53:09;7.80;;;1.48;;
41311;SDS011;27061;41.648;24.568;2024-01-15T02:55:36;1.40;;;1.30;;
41311;SDS011;27061;41.648;24.568;2024-01-15T02:58:04;1.50;;;1.40;;
41311;SDS011;27061;41.648;24.568;2024-01-15T03:00:35;7.57;;;1.30;;
41311;SDS011;27061;41.648;24.568;2024-01-15T03:03:03;1.65;;;1.42;;
41311;SDS011;27061;41.648;24.568;2024-01-15T03:05:30;1.00;;;1.00;;
41311;SDS011;27061;41.648;24.568;2024-01-15T03:07:58;5.05;;;1.20;;
41311;SDS011;27061;41.648;24.568;2024-01-15T03:10:25;1.52;;;1.13;;
41311;SDS011;27061;41.648;24.568;2024-01-15T03:12:53;2.10;;;1.67;;
41311;SDS011;27061;41.648;24.568;2024-01-15T03:15:20;1.50;;;1.17;;
41311;SDS011;27061;41.648;24.568;2024-01-15T03:17:47;1.45;;;1.35;;
41311;SDS011;27061;41.648;24.568;2024-01-15T03:20:15;1.20;;;1.10;;
41311;SDS011;27061;41.648;24.568;2024-01-15T03:22:42;2.72;;;1.42;;
41311;SDS011;27061;41.648;24.568;2024-01-15T03:25:10;1.23;;;1.13;;
41311;SDS011;27061;41.648;24.568;2024-01-15T03:27:39;2.60;;;1.90;;
41311;SDS011;27061;41.648;24.568;2024-01-15T03:30:07;1.58;;;1.48;;
41311;SDS011;27061;41.648;24.568;2024-01-15T03:32:37;4.53;;;1.45;;
41311;SDS011;27061;41.648;24.568;2024-01-15T03:35:04;1.70;;;1.60;;
41311;SDS011;27061;41.648;24.568;2024-01-15T03:37:32;2.40;;;1.60;;
41311;SDS011;27061;41.648;24.568;2024-01-15T03:40:00;1.63;;;1.27;;
41311;SDS011;27061;41.648;24.568;2024-01-15T03:42:28;2.38;;;1.50;;
41311;SDS011;27061;41.648;24.568;2024-01-15T03:44:58;2.38;;;1.92;;
41311;SDS011;27061;41.648;24.568;2024-01-15T03:47:25;3.42;;;1.58;;
41311;SDS011;27061;41.648;24.568;2024-01-15T03:49:57;1.60;;;1.50;;
41311;SDS011;27061;41.648;24.568;2024-01-15T03:52:24;1.58;;;1.48;;
41311;SDS011;27061;41.648;24.568;2024-01-15T03:54:52;2.42;;;1.52;;
41311;SDS011;27061;41.648;24.568;2024-01-15T03:57:21;1.90;;;1.10;;
41311;SDS011;27061;41.648;24.568;2024-01-15T03:59:48;1.65;;;1.55;;
41311;SDS011;27061;41.648;24.568;2024-01-15T04:02:18;1.92;;;1.52;;
41311;SDS011;27061;41.648;24.568;2024-01-15T04:04:45;1.83;;;1.45;;
41311;SDS011;27061;41.648;24.568;2024-01-15T04:07:16;2.08;;;1.83;;
41311;SDS011;27061;41.648;24.568;2024-01-15T04:09:43;2.15;;;1.77;;
41311;SDS011;27061;41.648;24.568;2024-01-15T04:12:11;1.30;;;1.20;;
41311;SDS011;27061;41.648;24.568;2024-01-15T04:14:38;1.60;;;1.50;;
41311;SDS011;27061;41.648;24.568;2024-01-15T04:17:05;1.73;;;1.30;;
41311;SDS011;27061;41.648;24.568;2024-01-15T04:19:34;4.28;;;2.08;;
41311;SDS011;27061;41.648;24.568;2024-01-15T04:22:02;8.25;;;2.00;;
41311;SDS011;27061;41.648;24.568;2024-01-15T04:24:31;3.95;;;1.65;;
41311;SDS011;27061;41.648;24.568;2024-01-15T04:26:59;5.40;;;2.38;;
41311;SDS011;27061;41.648;24.568;2024-01-15T04:29:26;1.20;;;1.10;;
41311;SDS011;27061;41.648;24.568;2024-01-15T04:31:54;1.90;;;1.70;;
41311;SDS011;27061;41.648;24.568;2024-01-15T04:34:21;2.70;;;1.83;;
41311;SDS011;27061;41.648;24.568;2024-01-15T04:36:49;17.98;;;1.95;;
41311;SDS011;27061;41.648;24.568;2024-01-15T04:39:17;3.55;;;1.27;;
41311;SDS011;27061;41.648;24.568;2024-01-15T04:41:44;1.65;;;1.55;;
41311;SDS011;27061;41.648;24.568;2024-01-15T04:44:12;4.05;;;1.40;;
41311;SDS011;27061;41.648;24.568;2024-01-15T04:46:39;1.20;;;1.17;;
41311;SDS011;27061;41.648;24.568;2024-01-15T04:49:07;1.85;;;1.75;;
41311;SDS011;27061;41.648;24.568;2024-01-15T04:51:35;2.72;;;1.63;;
41311;SDS011;27061;41.648;24.568;2024-01-15T04:54:03;35.47;;;13.32;;
41311;SDS011;27061;41.648;24.568;2024-01-15T04:56:31;2.92;;;2.67;;
41311;SDS011;27061;41.648;24.568;2024-01-15T04:58:59;17.73;;;11.60;;
41311;SDS011;27061;41.648;24.568;2024-01-15T05:01:30;4.13;;;3.50;;
41311;SDS011;27061;41.648;24.568;2024-01-15T05:03:59;9.10;;;7.43;;
41311;SDS011;27061;41.648;24.568;2024-01-15T05:06:27;3.80;;;3.50;;
41311;SDS011;27061;41.648;24.568;2024-01-15T05:08:55;1.75;;;1.65;;
41311;SDS011;27061;41.648;24.568;2024-01-15T05:11:22;3.60;;;2.20;;
41311;SDS011;27061;41.648;24.568;2024-01-15T05:13:50;2.33;;;1.98;;
41311;SDS011;27061;41.648;24.568;2024-01-15T05:16:18;3.88;;;2.17;;
41311;SDS011;27061;41.648;24.568;2024-01-15T05:18:47;32.20;;;7.45;;
41311;SDS011;27061;41.648;24.568;2024-01-15T05:21:15;15.82;;;8.25;;
41311;SDS011;27061;41.648;24.568;2024-01-15T05:23:42;50.13;;;19.40;;
41311;SDS011;27061;41.648;24.568;2024-01-15T05:26:10;15.13;;;7.43;;
41311;SDS011;27061;41.648;24.568;2024-01-15T05:28:37;40.78;;;17.38;;
41311;SDS011;27061;41.648;24.568;2024-01-15T05:31:04;45.60;;;22.05;;
41311;SDS011;27061;41.648;24.568;2024-01-15T05:33:32;34.63;;;14.32;;
41311;SDS011;27061;41.648;24.568;2024-01-15T05:35:59;21.52;;;10.07;;
41311;SDS011;27061;41.648;24.568;2024-01-15T05:38:27;50.67;;;24.52;;
41311;SDS011;27061;41.648;24.568;2024-01-15T05:40:58;86.65;;;39.60;;
41311;SDS011;27061;41.648;24.568;2024-01-15T05:43:26;31.00;;;17.45;;
41311;SDS011;27061;41.648;24.568;2024-01-15T05:45:53;56.03;;;25.10;;
41311;SDS011;27061;41.648;24.568;2024-01-15T05:48:21;156.20;;;77.40;;
41311;SDS011;27061;41.648;24.568;2024-01-15T05:50:48;76.40;;;32.90;;
41311;SDS011;27061;41.648;24.568;2024-01-15T05:53:17;26.98;;;12.30;;
41311;SDS011;27061;41.648;24.568;2024-01-15T05:55:44;13.35;;;7.53;;
41311;SDS011;27061;41.648;24.568;2024-01-15T05:58:15;8.18;;;6.25;;
41311;SDS011;27061;41.648;24.568;2024-01-15T06:00:42;8.70;;;5.57;;
41311;SDS011;27061;41.648;24.568;2024-01-15T06:03:10;7.10;;;5.63;;
41311;SDS011;27061;41.648;24.568;2024-01-15T06:05:38;4.38;;;2.03;;
41311;SDS011;27061;41.648;24.568;2024-01-15T06:08:20;6.25;;;3.95;;
41311;SDS011;27061;41.648;24.568;2024-01-15T06:10:47;13.13;;;7.15;;
41311;SDS011;27061;41.648;24.568;2024-01-15T06:13:15;6.30;;;3.00;;
41311;SDS011;27061;41.648;24.568;2024-01-15T06:15:42;9.52;;;5.45;;
41311;SDS011;27061;41.648;24.568;2024-01-15T06:18:09;13.82;;;6.32;;
41311;SDS011;27061;41.648;24.568;2024-01-15T06:20:37;6.35;;;2.80;;
41311;SDS011;27061;41.648;24.568;2024-01-15T06:23:05;29.88;;;13.20;;
41311;SDS011;27061;41.648;24.568;2024-01-15T06:25:32;20.33;;;10.55;;
41311;SDS011;27061;41.648;24.568;2024-01-15T06:27:59;7.93;;;5.63;;
41311;SDS011;27061;41.648;24.568;2024-01-15T06:30:27;32.55;;;16.00;;
41311;SDS011;27061;41.648;24.568;2024-01-15T06:32:54;17.42;;;3.83;;
41311;SDS011;27061;41.648;24.568;2024-01-15T06:35:22;4.55;;;2.53;;
41311;SDS011;27061;41.648;24.568;2024-01-15T06:37:50;11.45;;;4.95;;
41311;SDS011;27061;41.648;24.568;2024-01-15T06:40:20;2.80;;;2.55;;
41311;SDS011;27061;41.648;24.568;2024-01-15T06:42:47;5.25;;;2.83;;
41311;SDS011;27061;41.648;24.568;2024-01-15T06:45:15;4.07;;;2.75;;
41311;SDS011;27061;41.648;24.568;2024-01-15T06:47:42;18.00;;;4.65;;
41311;SDS011;27061;41.648;24.568;2024-01-15T06:50:09;3.70;;;3.05;;
41311;SDS011;27061;41.648;24.568;2024-01-15T06:52:37;4.57;;;2.90;;
41311;SDS011;27061;41.648;24.568;2024-01-15T06:55:04;20.85;;;10.95;;
41311;SDS011;27061;41.648;24.568;2024-01-15T06:57:33;12.20;;;7.10;;
41311;SDS011;27061;41.648;24.568;2024-01-15T07:00:00;46.92;;;20.23;;
41311;SDS011;27061;41.648;24.568;2024-01-15T07:02:27;23.83;;;9.52;;
41311;SDS011;27061;41.648;24.568;2024-01-15T07:04:55;17.80;;;7.70;;
41311;SDS011;27061;41.648;24.568;2024-01-15T07:07:22;53.83;;;25.73;;
41311;SDS011;27061;41.648;24.568;2024-01-15T07:09:49;3.92;;;2.60;;
41311;SDS011;27061;41.648;24.568;2024-01-15T07:12:19;3.95;;;1.80;;
41311;SDS011;27061;41.648;24.568;2024-01-15T07:14:46;2.53;;;1.73;;
41311;SDS011;27061;41.648;24.568;2024-01-15T07:17:14;13.20;;;2.42;;
41311;SDS011;27061;41.648;24.568;2024-01-15T07:19:45;13.30;;;5.30;;
41311;SDS011;27061;41.648;24.568;2024-01-15T07:22:13;5.90;;;4.43;;
41311;SDS011;27061;41.648;24.568;2024-01-15T07:24:44;6.85;;;5.38;;
41311;SDS011;27061;41.648;24.568;2024-01-15T07:27:11;4.97;;;3.47;;
41311;SDS011;27061;41.648;24.568;2024-01-15T07:29:38;4.45;;;3.22;;
41311;SDS011;27061;41.648;24.568;2024-01-15T07:32:06;4.50;;;3.90;;
41311;SDS011;27061;41.648;24.568;2024-01-15T07:34:34;12.18;;;4.93;;
41311;SDS011;27061;41.648;24.568;2024-01-15T07:37:02;6.13;;;3.75;;
41311;SDS011;27061;41.648;24.568;2024-01-15T07:39:29;6.82;;;2.85;;
41311;SDS011;27061;41.648;24.568;2024-01-15T07:41:57;5.07;;;4.53;;
41311;SDS011;27061;41.648;24.568;2024-01-15T07:44:25;11.10;;;4.95;;
41311;SDS011;27061;41.648;24.568;2024-01-15T07:46:53;4.47;;;4.07;;
41311;SDS011;27061;41.648;24.568;2024-01-15T07:49:20;3.65;;;2.17;;
41311;SDS011;27061;41.648;24.568;2024-01-15T07:51:48;3.33;;;3.08;;
41311;SDS011;27061;41.648;24.568;2024-01-15T07:54:15;4.72;;;2.40;;
41311;SDS011;27061;41.648;24.568;2024-01-15T07:56:53;6.93;;;5.85;;
41311;SDS011;27061;41.648;24.568;2024-01-15T07:59:21;7.60;;;3.30;;
41311;SDS011;27061;41.648;24.568;2024-01-15T08:01:49;4.32;;;1.83;;
41311;SDS011;27061;41.648;24.568;2024-01-15T08:04:16;3.10;;;2.10;;
41311;SDS011;27061;41.648;24.568;2024-01-15T08:06:44;5.70;;;2.42;;
41311;SDS011;27061;41.648;24.568;2024-01-15T08:09:12;1.90;;;1.80;;
41311;SDS011;27061;41.648;24.568;2024-01-15T08:11:41;3.80;;;2.35;;
41311;SDS011;27061;41.648;24.568;2024-01-15T08:14:10;2.85;;;1.65;;
41311;SDS011;27061;41.648;24.568;2024-01-15T08:16:37;1.98;;;1.50;;
41311;SDS011;27061;41.648;24.568;2024-01-15T08:19:05;2.90;;;1.65;;
41311;SDS011;27061;41.648;24.568;2024-01-15T08:21:33;9.77;;;2.22;;
41311;SDS011;27061;41.648;24.568;2024-01-15T08:24:04;5.55;;;2.83;;
41311;SDS011;27061;41.648;24.568;2024-01-15T08:26:32;3.05;;;1.52;;
41311;SDS011;27061;41.648;24.568;2024-01-15T08:28:59;2.38;;;1.45;;
41311;SDS011;27061;41.648;24.568;2024-01-15T08:31:27;4.60;;;2.40;;
41311;SDS011;27061;41.648;24.568;2024-01-15T08:33:54;9.25;;;2.25;;
41311;SDS011;27061;41.648;24.568;2024-01-15T08:36:22;5.28;;;1.42;;
41311;SDS011;27061;41.648;24.568;2024-01-15T08:38:51;3.55;;;1.17;;
41311;SDS011;27061;41.648;24.568;2024-01-15T08:41:18;2.45;;;2.10;;
41311;SDS011;27061;41.648;24.568;2024-01-15T08:43:46;1.83;;;1.30;;
41311;SDS011;27061;41.648;24.568;2024-01-15T08:46:16;0.70;;;0.70;;
41311;SDS011;27061;41.648;24.568;2024-01-15T08:48:44;1.50;;;1.23;;
41311;SDS011;27061;41.648;24.568;2024-01-15T08:51:11;11.73;;;1.40;;
41311;SDS011;27061;41.648;24.568;2024-01-15T08:53:39;2.15;;;1.30;;
41311;SDS011;27061;41.648;24.568;2024-01-15T08:56:06;1.45;;;1.38;;
41311;SDS011;27061;41.648;24.568;2024-01-15T08:58:35;3.75;;;3.13;;
41311;SDS011;27061;41.648;24.568;2024-01-15T09:01:02;3.28;;;1.55;;
41311;SDS011;27061;41.648;24.568;2024-01-15T09:03:30;1.98;;;1.33;;
41311;SDS011;27061;41.648;24.568;2024-01-15T09:05:58;3.10;;;1.20;;
41311;SDS011;27061;41.648;24.568;2024-01-15T09:08:25;1.77;;;1.15;;
41311;SDS011;27061;41.648;24.568;2024-01-15T09:10:54;1.58;;;1.27;;
41311;SDS011;27061;41.648;24.568;2024-01-15T09:13:21;15.27;;;10.52;;
41311;SDS011;27061;41.648;24.568;2024-01-15T09:15:49;1.70;;;1.30;;
41311;SDS011;27061;41.648;24.568;2024-01-15T09:18:16;27.60;;;13.85;;
41311;SDS011;27061;41.648;24.568;2024-01-15T09:20:43;6.20;;;3.58;;
41311;SDS011;27061;41.648;24.568;2024-01-15T09:23:11;2.05;;;1.30;;
41311;SDS011;27061;41.648;24.568;2024-01-15T09:25:39;1.20;;;1.10;;
41311;SDS011;27061;41.648;24.568;2024-01-15T09:28:06;1.02;;;1.00;;
41311;SDS011;27061;41.648;24.568;2024-01-15T09:30:34;2.58;;;2.38;;
41311;SDS011;27061;41.648;24.568;2024-01-15T09:33:03;3.47;;;2.20;;
41311;SDS011;27061;41.648;24.568;2024-01-15T09:35:30;0.88;;;0.88;;
41311;SDS011;27061;41.648;24.568;2024-01-15T09:37:58;0.73;;;0.73;;
41311;SDS011;27061;41.648;24.568;2024-01-15T09:40:25;2.67;;;0.90;;
41311;SDS011;27061;41.648;24.568;2024-01-15T09:42:58;4.55;;;1.05;;
41311;SDS011;27061;41.648;24.568;2024-01-15T09:45:27;5.93;;;1.05;;
41311;SDS011;27061;41.648;24.568;2024-01-15T09:47:55;3.63;;;1.80;;
41311;SDS011;27061;41.648;24.568;2024-01-15T09:50:23;1.35;;;1.25;;
41311;SDS011;27061;41.648;24.568;2024-01-15T09:52:50;1.35;;;1.15;;
41311;SDS011;27061;41.648;24.568;2024-01-15T09:55:18;0.70;;;0.70;;
41311;SDS011;27061;41.648;24.568;2024-01-15T09:57:46;1.50;;;1.30;;
41311;SDS011;27061;41.648;24.568;2024-01-15T10:00:14;1.10;;;1.00;;
41311;SDS011;27061;41.648;24.568;2024-01-15T10:02:45;1.30;;;1.20;;
41311;SDS011;27061;41.648;24.568;2024-01-15T10:05:15;1.60;;;1.50;;
41311;SDS011;27061;41.648;24.568;2024-01-15T10:07:42;1.52;;;1.42;;
41311;SDS011;27061;41.648;24.568;2024-01-15T10:10:12;5.40;;;1.45;;
41311;SDS011;27061;41.648;24.568;2024-01-15T10:12:39;1.30;;;1.20;;
41311;SDS011;27061;41.648;24.568;2024-01-15T10:15:10;1.35;;;1.25;;
41311;SDS011;27061;41.648;24.568;2024-01-15T10:17:39;1.60;;;1.30;;
41311;SDS011;27061;41.648;24.568;2024-01-15T10:20:11;0.85;;;0.85;;
41311;SDS011;27061;41.648;24.568;2024-01-15T10:22:42;1.27;;;1.17;;
41311;SDS011;27061;41.648;24.568;2024-01-15T10:25:10;1.02;;;0.90;;
41311;SDS011;27061;41.648;24.568;2024-01-15T10:27:39;0.70;;;0.70;;
41311;SDS011;27061;41.648;24.568;2024-01-15T10:30:09;1.15;;;1.00;;
41311;SDS011;27061;41.648;24.568;2024-01-15T10:32:37;1.33;;;1.20;;
41311;SDS011;27061;41.648;24.568;2024-01-15T10:35:06;2.20;;;1.70;;
41311;SDS011;27061;41.648;24.568;2024-01-15T10:37:34;0.80;;;0.80;;
41311;SDS011;27061;41.648;24.568;2024-01-15T10:40:02;1.35;;;0.88;;
41311;SDS011;27061;41.648;24.568;2024-01-15T10:42:32;2.72;;;0.70;;
41311;SDS011;27061;41.648;24.568;2024-01-15T10:45:00;2.28;;;1.83;;
41311;SDS011;27061;41.648;24.568;2024-01-15T10:47:28;1.08;;;0.98;;
41311;SDS011;27061;41.648;24.568;2024-01-15T10:49:56;0.73;;;0.73;;
41311;SDS011;27061;41.648;24.568;2024-01-15T10:52:24;9.63;;;1.30;;
41311;SDS011;27061;41.648;24.568;2024-01-15T10:54:52;2.67;;;1.80;;
41311;SDS011;27061;41.648;24.568;2024-01-15T10:57:21;1.75;;;1.30;;
41311;SDS011;27061;41.648;24.568;2024-01-15T10:59:49;3.50;;;0.85;;
41311;SDS011;27061;41.648;24.568;2024-01-15T11:02:17;1.95;;;1.23;;
41311;SDS011;27061;41.648;24.568;2024-01-15T11:04:44;0.98;;;0.80;;
41311;SDS011;27061;41.648;24.568;2024-01-15T11:07:12;2.70;;;1.75;;
41311;SDS011;27061;41.648;24.568;2024-01-15T11:09:41;1.35;;;0.95;;
41311;SDS011;27061;41.648;24.568;2024-01-15T11:12:12;1.55;;;1.20;;
41311;SDS011;27061;41.648;24.568;2024-01-15T11:14:41;1.38;;;1.27;;
41311;SDS011;27061;41.648;24.568;2024-01-15T11:17:12;4.22;;;1.73;;
41311;SDS011;27061;41.648;24.568;2024-01-15T11:22:08;2.00;;;1.40;;
41311;SDS011;27061;41.648;24.568;2024-01-15T11:24:39;2.38;;;1.55;;
41311;SDS011;27061;41.648;24.568;2024-01-15T11:27:07;1.27;;;1.20;;
41311;SDS011;27061;41.648;24.568;2024-01-15T11:29:36;5.70;;;1.40;;
41311;SDS011;27061;41.648;24.568;2024-01-15T11:32:04;1.60;;;1.50;;
41311;SDS011;27061;41.648;24.568;2024-01-15T11:37:21;3.78;;;1.30;;
41311;SDS011;27061;41.648;24.568;2024-01-15T11:39:51;1.10;;;1.00;;
41311;SDS011;27061;41.648;24.568;2024-01-15T11:42:20;6.63;;;1.10;;
41311;SDS011;27061;41.648;24.568;2024-01-15T11:44:49;1.25;;;1.25;;
41311;SDS011;27061;41.648;24.568;2024-01-15T11:47:17;1.10;;;1.10;;
41311;SDS011;27061;41.648;24.568;2024-01-15T11:50:09;4.90;;;1.77;;
41311;SDS011;27061;41.648;24.568;2024-01-15T11:52:38;1.73;;;1.20;;
41311;SDS011;27061;41.648;24.568;2024-01-15T11:57:55;1.52;;;1.30;;
41311;SDS011;27061;41.648;24.568;2024-01-15T12:00:25;1.10;;;1.00;;
41311;SDS011;27061;41.648;24.568;2024-01-15T12:02:52;2.13;;;1.23;;
41311;SDS011;27061;41.648;24.568;2024-01-15T12:05:20;1.08;;;1.08;;
41311;SDS011;27061;41.648;24.568;2024-01-15T12:07:48;1.42;;;1.33;;
41311;SDS011;27061;41.648;24.568;2024-01-15T12:10:20;1.15;;;1.02;;
41311;SDS011;27061;41.648;24.568;2024-01-15T12:15:36;1.30;;;1.00;;
41311;SDS011;27061;41.648;24.568;2024-01-15T12:18:05;1.20;;;1.10;;
41311;SDS011;27061;41.648;24.568;2024-01-15T12:20:34;1.13;;;1.02;;
41311;SDS011;27061;41.648;24.568;2024-01-15T12:23:02;1.33;;;1.23;;
41311;SDS011;27061;41.648;24.568;2024-01-15T12:25:34;4.60;;;1.30;;
41311;SDS011;27061;41.648;24.568;2024-01-15T12:28:03;1.05;;;0.95;;
41311;SDS011;27061;41.648;24.568;2024-01-15T12:30:32;2.85;;;1.70;;
41311;SDS011;27061;41.648;24.568;2024-01-15T12:33:04;1.20;;;1.20;;
41311;SDS011;27061;41.648;24.568;2024-01-15T12:35:35;1.65;;;1.10;;
41311;SDS011;27061;41.648;24.568;2024-01-15T12:38:03;4.57;;;1.20;;
41311;SDS011;27061;41.648;24.568;2024-01-15T12:40:32;1.38;;;1.27;;
41311;SDS011;27061;41.648;24.568;2024-01-15T12:43:03;2.05;;;1.50;;
41311;SDS011;27061;41.648;24.568;2024-01-15T12:45:34;1.50;;;1.25;;
41311;SDS011;27061;41.648;24.568;2024-01-15T12:48:05;1.30;;;1.23;;
41311;SDS011;27061;41.648;24.568;2024-01-15T12:50:35;1.38;;;1.25;;
41311;SDS011;27061;41.648;24.568;2024-01-15T12:53:05;0.82;;;0.80;;
41311;SDS011;27061;41.648;24.568;2024-01-15T12:55:35;2.35;;;1.00;;
41311;SDS011;27061;41.648;24.568;2024-01-15T12:58:02;2.05;;;1.40;;
41311;SDS011;27061;41.648;24.568;2024-01-15T13:00:30;4.72;;;2.30;;
41311;SDS011;27061;41.648;24.568;2024-01-15T13:02:57;5.63;;;3.20;;
41311;SDS011;27061;41.648;24.568;2024-01-15T13:05:25;0.88;;;0.88;;
41311;SDS011;27061;41.648;24.568;2024-01-15T13:07:54;1.02;;;1.02;;
41311;SDS011;27061;41.648;24.568;2024-01-15T13:10:22;2.35;;;0.82;;
41311;SDS011;27061;41.648;24.568;2024-01-15T13:12:52;0.80;;;0.63;;
41311;SDS011;27061;41.648;24.568;2024-01-15T13:15:19;4.63;;;2.58;;
41311;SDS011;27061;41.648;24.568;2024-01-15T13:17:47;1.33;;;1.00;;
41311;SDS011;27061;41.648;24.568;2024-01-15T13:20:14;1.33;;;1.23;;
41311;SDS011;27061;41.648;24.568;2024-01-15T13:22:41;1.63;;;1.45;;
41311;SDS011;27061;41.648;24.568;2024-01-15T13:25:11;2.30;;;1.95;;
41311;SDS011;27061;41.648;24.568;2024-01-15T13:27:38;1.50;;;1.42;;
41311;SDS011;27061;41.648;24.568;2024-01-15T13:30:08;1.90;;;1.35;;
41311;SDS011;27061;41.648;24.568;2024-01-15T13:32:37;2.10;;;1.80;;
41311;SDS011;27061;41.648;24.568;2024-01-15T13:35:08;3.00;;;1.00;;
41311;SDS011;27061;41.648;24.568;2024-01-15T13:37:37;1.35;;;1.10;;
41311;SDS011;27061;41.648;24.568;2024-01-15T13:40:05;2.95;;;2.42;;
41311;SDS011;27061;41.648;24.568;2024-01-15T13:42:35;1.70;;;1.60;;
41311;SDS011;27061;41.648;24.568;2024-01-15T13:45:06;3.00;;;1.55;;
41311;SDS011;27061;41.648;24.568;2024-01-15T13:47:34;2.95;;;1.42;;
41311;SDS011;27061;41.648;24.568;2024-01-15T13:50:05;2.70;;;2.50;;
41311;SDS011;27061;41.648;24.568;2024-01-15T13:52:34;1.55;;;1.02;;
41311;SDS011;27061;41.648;24.568;2024-01-15T13:55:01;2.67;;;2.17;;
41311;SDS011;27061;41.648;24.568;2024-01-15T13:57:29;1.00;;;1.00;;
41311;SDS011;27061;41.648;24.568;2024-01-15T13:59:56;1.58;;;1.42;;
41311;SDS011;27061;41.648;24.568;2024-01-15T14:02:24;1.13;;;0.77;;
41311;SDS011;27061;41.648;24.568;2024-01-15T14:04:52;0.50;;;0.50;;
41311;SDS011;27061;41.648;24.568;2024-01-15T14:07:21;2.05;;;1.40;;
41311;SDS011;27061;41.648;24.568;2024-01-15T14:09:48;1.50;;;1.40;;
41311;SDS011;27061;41.648;24.568;2024-01-15T14:12:16;1.25;;;1.10;;
41311;SDS011;27061;41.648;24.568;2024-01-15T14:14:43;0.77;;;0.77;;
41311;SDS011;27061;41.648;24.568;2024-01-15T14:17:11;1.00;;;0.90;;
41311;SDS011;27061;41.648;24.568;2024-01-15T14:19:38;2.38;;;1.63;;
41311;SDS011;27061;41.648;24.568;2024-01-15T14:22:06;0.82;;;0.82;;
41311;SDS011;27061;41.648;24.568;2024-01-15T14:24:33;0.50;;;0.50;;
41311;SDS011;27061;41.648;24.568;2024-01-15T14:27:01;1.65;;;1.55;;
41311;SDS011;27061;41.648;24.568;2024-01-15T14:29:28;2.00;;;1.80;;
41311;SDS011;27061;41.648;24.568;2024-01-15T14:31:55;1.08;;;1.08;;
41311;SDS011;27061;41.648;24.568;2024-01-15T14:34:24;4.53;;;1.30;;
41311;SDS011;27061;41.648;24.568;2024-01-15T14:36:52;1.27;;;1.17;;
41311;SDS011;27061;41.648;24.568;2024-01-15T14:39:22;2.25;;;1.70;;
41311;SDS011;27061;41.648;24.568;2024-01-15T14:41:49;2.08;;;1.85;;
41311;SDS011;27061;41.648;24.568;2024-01-15T14:44:17;8.77;;;1.90;;
41311;SDS011;27061;41.648;24.568;2024-01-15T14:46:44;3.65;;;1.35;;
41311;SDS011;27061;41.648;24.568;2024-01-15T14:49:13;5.90;;;1.65;;
41311;SDS011;27061;41.648;24.568;2024-01-15T14:51:41;3.08;;;1.10;;
41311;SDS011;27061;41.648;24.568;2024-01-15T14:54:09;6.20;;;1.35;;